sensor_id;sensor_type;location;lat;lon;timestamp;P1;durP1;ratioP1;P2;durP2;ratioP2
18716;SDS011;9487;50.892;6.906;2023-03-01T00:01:03;11.13;;;8.87;;
18716;SDS011;9487;50.892;6.906;2023-03-01T00:03:32;10.80;;;9.10;;
18716;SDS011;9487;50.892;6.906;2023-03-01T00:05:59;10.87;;;8.90;;
18716;SDS011;9487;50.892;6.906;2023-03-01T00:08:28;10.27;;;8.90;;
18716;SDS011;9487;50.892;6.906;2023-03-01T00:10:59;10.50;;;9.30;;
18716;SDS011;9487;50.892;6.906;2023-03-01T00:13:28;11.50;;;9.23;;
18716;SDS011;9487;50.892;6.906;2023-03-01T00:15:55;16.17;;;10.47;;
18716;SDS011;9487;50.892;6.906;2023-03-01T00:18:22;13.00;;;9.20;;
18716;SDS011;9487;50.892;6.906;2023-03-01T00:20:49;11.00;;;8.73;;
18716;SDS011;9487;50.892;6.906;2023-03-01T00:23:17;10.10;;;8.33;;
18716;SDS011;9487;50.892;6.906;2023-03-01T00:25:45;13.80;;;8.63;;
18716;SDS011;9487;50.892;6.906;2023-03-01T00:28:12;11.10;;;8.93;;
18716;SDS011;9487;50.892;6.906;2023-03-01T00:30:39;11.37;;;8.33;;
18716;SDS011;9487;50.892;6.906;2023-03-01T00:33:06;11.37;;;9.10;;
18716;SDS011;9487;50.892;6.906;2023-03-01T00:35:33;10.97;;;8.30;;
18716;SDS011;9487;50.892;6.906;2023-03-01T00:38:00;10.83;;;8.50;;
18716;SDS011;9487;50.892;6.906;2023-03-01T00:40:27;9.80;;;8.27;;
18716;SDS011;9487;50.892;6.906;2023-03-01T00:42:56;12.40;;;7.90;;
18716;SDS011;9487;50.892;6.906;2023-03-01T00:45:23;9.83;;;8.83;;
18716;SDS011;9487;50.892;6.906;2023-03-01T00:47:50;10.17;;;7.80;;
18716;SDS011;9487;50.892;6.906;2023-03-01T00:50:18;10.33;;;8.13;;
18716;SDS011;9487;50.892;6.906;2023-03-01T00:52:45;10.60;;;8.50;;
18716;SDS011;9487;50.892;6.906;2023-03-01T00:55:12;9.40;;;8.07;;
18716;SDS011;9487;50.892;6.906;2023-03-01T00:57:39;9.47;;;7.63;;
18716;SDS011;9487;50.892;6.906;2023-03-01T01:00:08;13.20;;;8.50;;
18716;SDS011;9487;50.892;6.906;2023-03-01T01:02:36;9.17;;;7.77;;
18716;SDS011;9487;50.892;6.906;2023-03-01T01:05:04;10.53;;;8.07;;
18716;SDS011;9487;50.892;6.906;2023-03-01T01:07:31;10.57;;;7.97;;
18716;SDS011;9487;50.892;6.906;2023-03-01T01:09:58;10.60;;;7.90;;
18716;SDS011;9487;50.892;6.906;2023-03-01T01:12:24;10.40;;;7.80;;
18716;SDS011;9487;50.892;6.906;2023-03-01T01:14:51;9.27;;;7.47;;
18716;SDS011;9487;50.892;6.906;2023-03-01T01:17:20;11.17;;;9.43;;
18716;SDS011;9487;50.892;6.906;2023-03-01T01:19:46;11.47;;;8.67;;
18716;SDS011;9487;50.892;6.906;2023-03-01T01:22:13;12.33;;;8.30;;
18716;SDS011;9487;50.892;6.906;2023-03-01T01:24:40;11.73;;;9.07;;
18716;SDS011;9487;50.892;6.906;2023-03-01T01:27:07;14.07;;;10.07;;
18716;SDS011;9487;50.892;6.906;2023-03-01T01:29:34;13.33;;;9.87;;
18716;SDS011;9487;50.892;6.906;2023-03-01T01:32:00;13.37;;;9.70;;
18716;SDS011;9487;50.892;6.906;2023-03-01T01:34:29;11.30;;;9.10;;
18716;SDS011;9487;50.892;6.906;2023-03-01T01:36:55;9.63;;;8.30;;
18716;SDS011;9487;50.892;6.906;2023-03-01T01:39:22;9.97;;;8.40;;
18716;SDS011;9487;50.892;6.906;2023-03-01T01:41:49;11.93;;;8.57;;
18716;SDS011;9487;50.892;6.906;2023-03-01T01:44:18;10.43;;;8.13;;
18716;SDS011;9487;50.892;6.906;2023-03-01T01:46:47;9.93;;;7.53;;
18716;SDS011;9487;50.892;6.906;2023-03-01T01:49:23;10.00;;;8.10;;
18716;SDS011;9487;50.892;6.906;2023-03-01T01:52:00;11.77;;;10.20;;
18716;SDS011;9487;50.892;6.906;2023-03-01T01:54:36;9.80;;;7.93;;
18716;SDS011;9487;50.892;6.906;2023-03-01T01:57:09;10.87;;;9.33;;
18716;SDS011;9487;50.892;6.906;2023-03-01T01:59:39;11.70;;;9.27;;
18716;SDS011;9487;50.892;6.906;2023-03-01T02:02:09;12.57;;;9.60;;
18716;SDS011;9487;50.892;6.906;2023-03-01T02:04:39;9.60;;;8.33;;
18716;SDS011;9487;50.892;6.906;2023-03-01T02:07:08;11.53;;;9.10;;
18716;SDS011;9487;50.892;6.906;2023-03-01T02:09:40;11.10;;;9.53;;
18716;SDS011;9487;50.892;6.906;2023-03-01T02:12:10;12.90;;;9.63;;
18716;SDS011;9487;50.892;6.906;2023-03-01T02:14:36;12.60;;;9.43;;
18716;SDS011;9487;50.892;6.906;2023-03-01T02:17:03;12.90;;;9.87;;
18716;SDS011;9487;50.892;6.906;2023-03-01T02:19:38;13.57;;;9.37;;
18716;SDS011;9487;50.892;6.906;2023-03-01T02:22:17;10.73;;;9.07;;
18716;SDS011;9487;50.892;6.906;2023-03-01T02:24:49;10.33;;;8.97;;
18716;SDS011;9487;50.892;6.906;2023-03-01T02:27:29;11.43;;;9.50;;
18716;SDS011;9487;50.892;6.906;2023-03-01T02:30:04;14.60;;;9.30;;
18716;SDS011;9487;50.892;6.906;2023-03-01T02:32:32;11.50;;;9.50;;
18716;SDS011;9487;50.892;6.906;2023-03-01T02:34:59;11.57;;;9.43;;
18716;SDS011;9487;50.892;6.906;2023-03-01T02:37:26;10.73;;;9.13;;
18716;SDS011;9487;50.892;6.906;2023-03-01T02:39:55;12.40;;;8.80;;
18716;SDS011;9487;50.892;6.906;2023-03-01T02:42:26;13.00;;;9.93;;
18716;SDS011;9487;50.892;6.906;2023-03-01T02:44:56;11.90;;;9.50;;
18716;SDS011;9487;50.892;6.906;2023-03-01T02:47:24;12.40;;;9.97;;
18716;SDS011;9487;50.892;6.906;2023-03-01T02:49:51;14.40;;;9.37;;
18716;SDS011;9487;50.892;6.906;2023-03-01T02:52:30;13.50;;;9.93;;
18716;SDS011;9487;50.892;6.906;2023-03-01T02:55:07;13.77;;;9.80;;
18716;SDS011;9487;50.892;6.906;2023-03-01T02:57:36;12.83;;;9.67;;
18716;SDS011;9487;50.892;6.906;2023-03-01T03:00:07;12.07;;;10.27;;
18716;SDS011;9487;50.892;6.906;2023-03-01T03:02:45;12.27;;;9.37;;
18716;SDS011;9487;50.892;6.906;2023-03-01T03:05:13;12.57;;;9.00;;
18716;SDS011;9487;50.892;6.906;2023-03-01T03:07:43;14.67;;;10.33;;
18716;SDS011;9487;50.892;6.906;2023-03-01T03:10:12;12.80;;;9.80;;
18716;SDS011;9487;50.892;6.906;2023-03-01T03:12:41;11.77;;;9.50;;
18716;SDS011;9487;50.892;6.906;2023-03-01T03:15:08;13.43;;;9.77;;
18716;SDS011;9487;50.892;6.906;2023-03-01T03:17:38;13.67;;;9.93;;
18716;SDS011;9487;50.892;6.906;2023-03-01T03:20:08;13.10;;;9.97;;
18716;SDS011;9487;50.892;6.906;2023-03-01T03:22:36;14.77;;;9.80;;
18716;SDS011;9487;50.892;6.906;2023-03-01T03:25:04;13.83;;;10.10;;
18716;SDS011;9487;50.892;6.906;2023-03-01T03:27:35;13.00;;;10.60;;
18716;SDS011;9487;50.892;6.906;2023-03-01T03:30:02;13.97;;;10.30;;
18716;SDS011;9487;50.892;6.906;2023-03-01T03:32:33;11.80;;;10.47;;
18716;SDS011;9487;50.892;6.906;2023-03-01T03:35:00;11.60;;;9.97;;
18716;SDS011;9487;50.892;6.906;2023-03-01T03:37:29;14.07;;;11.13;;
18716;SDS011;9487;50.892;6.906;2023-03-01T03:40:13;15.00;;;10.70;;
18716;SDS011;9487;50.892;6.906;2023-03-01T03:42:40;14.67;;;11.03;;
18716;SDS011;9487;50.892;6.906;2023-03-01T03:45:07;14.57;;;10.80;;
18716;SDS011;9487;50.892;6.906;2023-03-01T03:47:34;13.20;;;10.47;;
18716;SDS011;9487;50.892;6.906;2023-03-01T03:50:01;16.43;;;11.30;;
18716;SDS011;9487;50.892;6.906;2023-03-01T03:52:29;13.83;;;11.07;;
18716;SDS011;9487;50.892;6.906;2023-03-01T03:54:56;14.87;;;11.57;;
18716;SDS011;9487;50.892;6.906;2023-03-01T03:57:23;14.10;;;11.30;;
18716;SDS011;9487;50.892;6.906;2023-03-01T03:59:50;15.20;;;11.50;;
18716;SDS011;9487;50.892;6.906;2023-03-01T04:02:16;15.13;;;12.07;;
18716;SDS011;9487;50.892;6.906;2023-03-01T04:04:47;14.87;;;11.47;;
18716;SDS011;9487;50.892;6.906;2023-03-01T04:07:14;15.10;;;11.63;;
18716;SDS011;9487;50.892;6.906;2023-03-01T04:09:43;12.73;;;11.43;;
18716;SDS011;9487;50.892;6.906;2023-03-01T04:12:10;16.00;;;12.10;;
18716;SDS011;9487;50.892;6.906;2023-03-01T04:14:36;16.17;;;12.17;;
18716;SDS011;9487;50.892;6.906;2023-03-01T04:17:03;16.80;;;11.47;;
18716;SDS011;9487;50.892;6.906;2023-03-01T04:19:30;15.57;;;10.53;;
18716;SDS011;9487;50.892;6.906;2023-03-01T04:22:01;13.20;;;10.20;;
18716;SDS011;9487;50.892;6.906;2023-03-01T04:24:32;13.77;;;10.60;;
18716;SDS011;9487;50.892;6.906;2023-03-01T04:27:00;15.10;;;10.40;;
18716;SDS011;9487;50.892;6.906;2023-03-01T04:29:27;14.80;;;10.33;;
18716;SDS011;9487;50.892;6.906;2023-03-01T04:31:54;13.60;;;10.53;;
18716;SDS011;9487;50.892;6.906;2023-03-01T04:34:21;13.30;;;10.33;;
18716;SDS011;9487;50.892;6.906;2023-03-01T04:36:48;13.30;;;10.70;;
18716;SDS011;9487;50.892;6.906;2023-03-01T04:39:14;14.63;;;10.97;;
18716;SDS011;9487;50.892;6.906;2023-03-01T04:41:44;12.60;;;10.93;;
18716;SDS011;9487;50.892;6.906;2023-03-01T04:44:12;14.73;;;11.57;;
18716;SDS011;9487;50.892;6.906;2023-03-01T04:46:39;14.07;;;11.00;;
18716;SDS011;9487;50.892;6.906;2023-03-01T04:49:06;13.87;;;11.93;;
18716;SDS011;9487;50.892;6.906;2023-03-01T04:51:33;14.93;;;10.60;;
18716;SDS011;9487;50.892;6.906;2023-03-01T04:53:59;15.23;;;11.23;;
18716;SDS011;9487;50.892;6.906;2023-03-01T04:56:26;14.33;;;11.07;;
18716;SDS011;9487;50.892;6.906;2023-03-01T04:58:53;15.70;;;11.40;;
18716;SDS011;9487;50.892;6.906;2023-03-01T05:01:21;16.73;;;10.60;;
18716;SDS011;9487;50.892;6.906;2023-03-01T05:03:49;15.90;;;11.33;;
18716;SDS011;9487;50.892;6.906;2023-03-01T05:06:17;13.17;;;11.03;;
18716;SDS011;9487;50.892;6.906;2023-03-01T05:08:45;16.80;;;11.63;;
18716;SDS011;9487;50.892;6.906;2023-03-01T05:11:12;13.70;;;10.70;;
18716;SDS011;9487;50.892;6.906;2023-03-01T05:13:39;13.97;;;10.43;;
18716;SDS011;9487;50.892;6.906;2023-03-01T05:16:07;13.73;;;10.80;;
18716;SDS011;9487;50.892;6.906;2023-03-01T05:18:37;13.87;;;10.70;;
18716;SDS011;9487;50.892;6.906;2023-03-01T05:21:05;14.33;;;10.57;;
18716;SDS011;9487;50.892;6.906;2023-03-01T05:23:33;15.40;;;11.20;;
18716;SDS011;9487;50.892;6.906;2023-03-01T05:26:01;11.97;;;9.47;;
18716;SDS011;9487;50.892;6.906;2023-03-01T05:28:34;15.07;;;11.03;;
18716;SDS011;9487;50.892;6.906;2023-03-01T05:31:02;15.13;;;12.17;;
18716;SDS011;9487;50.892;6.906;2023-03-01T05:33:34;14.17;;;11.20;;
18716;SDS011;9487;50.892;6.906;2023-03-01T05:36:03;13.97;;;11.20;;
18716;SDS011;9487;50.892;6.906;2023-03-01T05:38:30;15.37;;;10.83;;
18716;SDS011;9487;50.892;6.906;2023-03-01T05:40:57;12.57;;;10.40;;
18716;SDS011;9487;50.892;6.906;2023-03-01T05:43:24;14.93;;;12.60;;
18716;SDS011;9487;50.892;6.906;2023-03-01T05:45:51;15.13;;;10.93;;
18716;SDS011;9487;50.892;6.906;2023-03-01T05:48:18;16.90;;;11.57;;
18716;SDS011;9487;50.892;6.906;2023-03-01T05:50:47;11.93;;;10.63;;
18716;SDS011;9487;50.892;6.906;2023-03-01T05:53:14;15.83;;;11.43;;
18716;SDS011;9487;50.892;6.906;2023-03-01T05:55:44;14.97;;;11.73;;
18716;SDS011;9487;50.892;6.906;2023-03-01T05:58:12;16.00;;;11.17;;
18716;SDS011;9487;50.892;6.906;2023-03-01T06:00:42;17.17;;;11.60;;
18716;SDS011;9487;50.892;6.906;2023-03-01T06:03:11;13.37;;;11.77;;
18716;SDS011;9487;50.892;6.906;2023-03-01T06:05:39;15.83;;;11.73;;
18716;SDS011;9487;50.892;6.906;2023-03-01T06:08:08;13.03;;;11.07;;
18716;SDS011;9487;50.892;6.906;2023-03-01T06:10:36;16.60;;;11.87;;
18716;SDS011;9487;50.892;6.906;2023-03-01T06:13:03;14.90;;;11.67;;
18716;SDS011;9487;50.892;6.906;2023-03-01T06:15:29;15.73;;;11.30;;
18716;SDS011;9487;50.892;6.906;2023-03-01T06:17:56;17.33;;;12.50;;
18716;SDS011;9487;50.892;6.906;2023-03-01T06:20:24;15.23;;;12.07;;
18716;SDS011;9487;50.892;6.906;2023-03-01T06:22:52;15.90;;;12.43;;
18716;SDS011;9487;50.892;6.906;2023-03-01T06:25:21;15.47;;;11.67;;
18716;SDS011;9487;50.892;6.906;2023-03-01T06:27:49;15.67;;;13.10;;
18716;SDS011;9487;50.892;6.906;2023-03-01T06:30:18;17.87;;;13.40;;
18716;SDS011;9487;50.892;6.906;2023-03-01T06:32:46;18.27;;;13.37;;
18716;SDS011;9487;50.892;6.906;2023-03-01T06:35:14;22.23;;;13.10;;
18716;SDS011;9487;50.892;6.906;2023-03-01T06:37:43;19.50;;;14.60;;
18716;SDS011;9487;50.892;6.906;2023-03-01T06:40:10;18.60;;;14.33;;
18716;SDS011;9487;50.892;6.906;2023-03-01T06:42:40;18.00;;;13.97;;
18716;SDS011;9487;50.892;6.906;2023-03-01T06:45:09;19.33;;;14.30;;
18716;SDS011;9487;50.892;6.906;2023-03-01T06:47:37;18.37;;;14.70;;
18716;SDS011;9487;50.892;6.906;2023-03-01T06:50:04;17.90;;;14.43;;
18716;SDS011;9487;50.892;6.906;2023-03-01T06:52:31;18.73;;;14.33;;
18716;SDS011;9487;50.892;6.906;2023-03-01T06:54:58;20.53;;;14.63;;
18716;SDS011;9487;50.892;6.906;2023-03-01T06:57:25;18.73;;;13.97;;
18716;SDS011;9487;50.892;6.906;2023-03-01T06:59:53;17.67;;;12.90;;
18716;SDS011;9487;50.892;6.906;2023-03-01T07:02:20;17.50;;;13.90;;
18716;SDS011;9487;50.892;6.906;2023-03-01T07:04:48;17.43;;;13.93;;
18716;SDS011;9487;50.892;6.906;2023-03-01T07:07:15;20.27;;;13.73;;
18716;SDS011;9487;50.892;6.906;2023-03-01T07:09:43;22.87;;;14.60;;
18716;SDS011;9487;50.892;6.906;2023-03-01T07:12:09;22.57;;;13.97;;
18716;SDS011;9487;50.892;6.906;2023-03-01T07:14:36;18.93;;;14.83;;
18716;SDS011;9487;50.892;6.906;2023-03-01T07:17:04;22.47;;;14.00;;
18716;SDS011;9487;50.892;6.906;2023-03-01T07:19:31;18.90;;;14.07;;
18716;SDS011;9487;50.892;6.906;2023-03-01T07:21:58;17.10;;;12.53;;
18716;SDS011;9487;50.892;6.906;2023-03-01T07:24:25;15.40;;;13.03;;
18716;SDS011;9487;50.892;6.906;2023-03-01T07:26:52;17.37;;;13.00;;
18716;SDS011;9487;50.892;6.906;2023-03-01T07:29:19;15.67;;;12.87;;
18716;SDS011;9487;50.892;6.906;2023-03-01T07:31:46;15.07;;;12.33;;
18716;SDS011;9487;50.892;6.906;2023-03-01T07:34:14;16.10;;;12.90;;
18716;SDS011;9487;50.892;6.906;2023-03-01T07:36:42;17.07;;;12.77;;
18716;SDS011;9487;50.892;6.906;2023-03-01T07:39:10;17.67;;;13.37;;
18716;SDS011;9487;50.892;6.906;2023-03-01T07:41:37;22.30;;;13.93;;
18716;SDS011;9487;50.892;6.906;2023-03-01T07:44:04;19.03;;;13.93;;
18716;SDS011;9487;50.892;6.906;2023-03-01T07:46:31;19.37;;;13.73;;
18716;SDS011;9487;50.892;6.906;2023-03-01T07:48:58;16.43;;;12.60;;
18716;SDS011;9487;50.892;6.906;2023-03-01T07:51:26;17.43;;;13.50;;
18716;SDS011;9487;50.892;6.906;2023-03-01T07:53:53;15.83;;;12.30;;
18716;SDS011;9487;50.892;6.906;2023-03-01T07:56:20;18.37;;;12.03;;
18716;SDS011;9487;50.892;6.906;2023-03-01T07:58:47;15.60;;;12.27;;
18716;SDS011;9487;50.892;6.906;2023-03-01T08:01:15;17.47;;;12.73;;
18716;SDS011;9487;50.892;6.906;2023-03-01T08:03:43;17.33;;;13.93;;
18716;SDS011;9487;50.892;6.906;2023-03-01T08:06:10;17.23;;;13.27;;
18716;SDS011;9487;50.892;6.906;2023-03-01T08:08:40;15.73;;;13.00;;
18716;SDS011;9487;50.892;6.906;2023-03-01T08:11:07;15.87;;;12.83;;
18716;SDS011;9487;50.892;6.906;2023-03-01T08:13:36;19.80;;;13.83;;
18716;SDS011;9487;50.892;6.906;2023-03-01T08:16:03;18.20;;;13.83;;
18716;SDS011;9487;50.892;6.906;2023-03-01T08:18:31;16.83;;;13.57;;
18716;SDS011;9487;50.892;6.906;2023-03-01T08:21:00;17.60;;;13.33;;
18716;SDS011;9487;50.892;6.906;2023-03-01T08:23:28;18.23;;;13.30;;
18716;SDS011;9487;50.892;6.906;2023-03-01T08:26:03;17.50;;;14.17;;
18716;SDS011;9487;50.892;6.906;2023-03-01T08:28:32;19.07;;;13.73;;
18716;SDS011;9487;50.892;6.906;2023-03-01T08:30:58;17.73;;;14.17;;
18716;SDS011;9487;50.892;6.906;2023-03-01T08:33:25;19.67;;;13.90;;
18716;SDS011;9487;50.892;6.906;2023-03-01T08:35:52;23.27;;;13.83;;
18716;SDS011;9487;50.892;6.906;2023-03-01T08:38:27;17.40;;;13.97;;
18716;SDS011;9487;50.892;6.906;2023-03-01T08:40:54;17.53;;;13.70;;
18716;SDS011;9487;50.892;6.906;2023-03-01T08:43:22;18.50;;;12.50;;
18716;SDS011;9487;50.892;6.906;2023-03-01T08:45:49;16.23;;;12.90;;
18716;SDS011;9487;50.892;6.906;2023-03-01T08:48:16;17.87;;;12.90;;
18716;SDS011;9487;50.892;6.906;2023-03-01T08:50:43;16.90;;;13.40;;
18716;SDS011;9487;50.892;6.906;2023-03-01T08:53:10;18.23;;;13.40;;
18716;SDS011;9487;50.892;6.906;2023-03-01T08:55:36;16.67;;;13.50;;
18716;SDS011;9487;50.892;6.906;2023-03-01T08:58:03;19.07;;;14.07;;
18716;SDS011;9487;50.892;6.906;2023-03-01T09:00:31;16.03;;;13.33;;
18716;SDS011;9487;50.892;6.906;2023-03-01T09:02:59;17.40;;;13.63;;
18716;SDS011;9487;50.892;6.906;2023-03-01T09:05:26;17.47;;;13.40;;
18716;SDS011;9487;50.892;6.906;2023-03-01T09:07:53;17.43;;;13.37;;
18716;SDS011;9487;50.892;6.906;2023-03-01T09:10:20;16.43;;;12.77;;
18716;SDS011;9487;50.892;6.906;2023-03-01T09:12:46;16.47;;;13.83;;
18716;SDS011;9487;50.892;6.906;2023-03-01T09:15:13;15.77;;;12.37;;
18716;SDS011;9487;50.892;6.906;2023-03-01T09:17:41;17.40;;;13.17;;
18716;SDS011;9487;50.892;6.906;2023-03-01T09:20:09;17.83;;;12.13;;
18716;SDS011;9487;50.892;6.906;2023-03-01T09:22:36;15.57;;;11.77;;
18716;SDS011;9487;50.892;6.906;2023-03-01T09:25:03;17.00;;;12.40;;
18716;SDS011;9487;50.892;6.906;2023-03-01T09:27:31;14.37;;;12.03;;
18716;SDS011;9487;50.892;6.906;2023-03-01T09:29:58;14.97;;;11.70;;
18716;SDS011;9487;50.892;6.906;2023-03-01T09:32:24;13.10;;;11.40;;
18716;SDS011;9487;50.892;6.906;2023-03-01T09:34:52;14.33;;;11.33;;
18716;SDS011;9487;50.892;6.906;2023-03-01T09:37:29;15.57;;;12.37;;
18716;SDS011;9487;50.892;6.906;2023-03-01T09:39:57;14.20;;;11.57;;
18716;SDS011;9487;50.892;6.906;2023-03-01T09:42:24;13.67;;;11.13;;
18716;SDS011;9487;50.892;6.906;2023-03-01T09:44:52;14.03;;;11.00;;
18716;SDS011;9487;50.892;6.906;2023-03-01T09:47:24;13.57;;;11.37;;
18716;SDS011;9487;50.892;6.906;2023-03-01T09:49:59;13.67;;;11.10;;
18716;SDS011;9487;50.892;6.906;2023-03-01T09:52:33;12.53;;;10.97;;
18716;SDS011;9487;50.892;6.906;2023-03-01T09:55:08;13.73;;;11.83;;
18716;SDS011;9487;50.892;6.906;2023-03-01T09:57:38;13.77;;;10.53;;
18716;SDS011;9487;50.892;6.906;2023-03-01T10:03:01;14.47;;;11.20;;
18716;SDS011;9487;50.892;6.906;2023-03-01T10:05:41;14.43;;;11.07;;
18716;SDS011;9487;50.892;6.906;2023-03-01T10:08:25;13.83;;;11.10;;
18716;SDS011;9487;50.892;6.906;2023-03-01T10:10:56;14.23;;;12.00;;
18716;SDS011;9487;50.892;6.906;2023-03-01T10:13:24;14.20;;;11.00;;
18716;SDS011;9487;50.892;6.906;2023-03-01T10:15:56;13.83;;;10.60;;
18716;SDS011;9487;50.892;6.906;2023-03-01T10:18:28;15.53;;;11.17;;
18716;SDS011;9487;50.892;6.906;2023-03-01T10:21:05;12.90;;;10.67;;
18716;SDS011;9487;50.892;6.906;2023-03-01T10:23:40;13.00;;;11.63;;
18716;SDS011;9487;50.892;6.906;2023-03-01T10:26:11;12.77;;;11.37;;
18716;SDS011;9487;50.892;6.906;2023-03-01T10:28:50;17.33;;;11.40;;
18716;SDS011;9487;50.892;6.906;2023-03-01T10:31:23;14.47;;;11.97;;
18716;SDS011;9487;50.892;6.906;2023-03-01T10:33:54;15.03;;;12.03;;
18716;SDS011;9487;50.892;6.906;2023-03-01T10:36:23;13.23;;;11.00;;
18716;SDS011;9487;50.892;6.906;2023-03-01T10:38:51;13.40;;;11.13;;
18716;SDS011;9487;50.892;6.906;2023-03-01T10:41:19;14.90;;;11.83;;
18716;SDS011;9487;50.892;6.906;2023-03-01T10:43:49;15.07;;;11.83;;
18716;SDS011;9487;50.892;6.906;2023-03-01T10:46:22;13.70;;;11.50;;
18716;SDS011;9487;50.892;6.906;2023-03-01T10:49:05;13.47;;;11.47;;
18716;SDS011;9487;50.892;6.906;2023-03-01T10:51:44;14.93;;;11.37;;
18716;SDS011;9487;50.892;6.906;2023-03-01T10:54:16;13.27;;;11.70;;
18716;SDS011;9487;50.892;6.906;2023-03-01T10:56:49;12.93;;;11.27;;
18716;SDS011;9487;50.892;6.906;2023-03-01T10:59:27;13.13;;;11.67;;
18716;SDS011;9487;50.892;6.906;2023-03-01T11:02:03;13.70;;;11.23;;
18716;SDS011;9487;50.892;6.906;2023-03-01T11:04:42;14.03;;;12.10;;
18716;SDS011;9487;50.892;6.906;2023-03-01T11:07:25;12.40;;;10.97;;
18716;SDS011;9487;50.892;6.906;2023-03-01T11:09:51;12.77;;;11.00;;
18716;SDS011;9487;50.892;6.906;2023-03-01T11:12:20;13.73;;;11.67;;
18716;SDS011;9487;50.892;6.906;2023-03-01T11:14:48;14.43;;;12.27;;
18716;SDS011;9487;50.892;6.906;2023-03-01T11:17:17;12.77;;;11.47;;
18716;SDS011;9487;50.892;6.906;2023-03-01T11:19:59;14.97;;;11.43;;
18716;SDS011;9487;50.892;6.906;2023-03-01T11:22:29;15.03;;;11.83;;
18716;SDS011;9487;50.892;6.906;2023-03-01T11:24:58;13.50;;;10.83;;
18716;SDS011;9487;50.892;6.906;2023-03-01T11:27:28;12.47;;;11.17;;
18716;SDS011;9487;50.892;6.906;2023-03-01T11:29:57;17.03;;;12.70;;
18716;SDS011;9487;50.892;6.906;2023-03-01T11:32:28;15.10;;;12.33;;
18716;SDS011;9487;50.892;6.906;2023-03-01T11:35:01;13.23;;;11.27;;
18716;SDS011;9487;50.892;6.906;2023-03-01T11:37:37;14.13;;;10.63;;
18716;SDS011;9487;50.892;6.906;2023-03-01T11:40:11;12.93;;;10.80;;
18716;SDS011;9487;50.892;6.906;2023-03-01T11:42:54;13.00;;;10.73;;
18716;SDS011;9487;50.892;6.906;2023-03-01T11:45:30;11.77;;;10.33;;
18716;SDS011;9487;50.892;6.906;2023-03-01T11:48:13;13.87;;;11.23;;
18716;SDS011;9487;50.892;6.906;2023-03-01T11:50:54;12.27;;;10.97;;
18716;SDS011;9487;50.892;6.906;2023-03-01T11:53:29;13.47;;;11.20;;
18716;SDS011;9487;50.892;6.906;2023-03-01T11:56:05;11.67;;;10.20;;
18716;SDS011;9487;50.892;6.906;2023-03-01T11:58:43;11.87;;;10.57;;
18716;SDS011;9487;50.892;6.906;2023-03-01T12:01:36;13.60;;;10.93;;
18716;SDS011;9487;50.892;6.906;2023-03-01T12:04:36;12.57;;;10.20;;
18716;SDS011;9487;50.892;6.906;2023-03-01T12:07:20;12.77;;;10.17;;
18716;SDS011;9487;50.892;6.906;2023-03-01T12:10:05;13.17;;;10.17;;
18716;SDS011;9487;50.892;6.906;2023-03-01T12:12:51;11.83;;;10.23;;
18716;SDS011;9487;50.892;6.906;2023-03-01T12:15:41;12.40;;;10.97;;
18716;SDS011;9487;50.892;6.906;2023-03-01T12:18:33;12.03;;;10.17;;
18716;SDS011;9487;50.892;6.906;2023-03-01T12:21:18;12.80;;;9.87;;
18716;SDS011;9487;50.892;6.906;2023-03-01T12:23:59;12.20;;;10.43;;
18716;SDS011;9487;50.892;6.906;2023-03-01T12:26:53;12.90;;;10.60;;
18716;SDS011;9487;50.892;6.906;2023-03-01T12:29:33;11.97;;;10.67;;
18716;SDS011;9487;50.892;6.906;2023-03-01T12:32:15;11.87;;;9.83;;
18716;SDS011;9487;50.892;6.906;2023-03-01T12:37:52;12.00;;;10.07;;
18716;SDS011;9487;50.892;6.906;2023-03-01T12:40:28;14.57;;;10.40;;
18716;SDS011;9487;50.892;6.906;2023-03-01T12:43:25;11.13;;;10.00;;
18716;SDS011;9487;50.892;6.906;2023-03-01T12:46:15;11.20;;;9.77;;
18716;SDS011;9487;50.892;6.906;2023-03-01T12:48:54;12.43;;;11.13;;
18716;SDS011;9487;50.892;6.906;2023-03-01T12:51:29;12.60;;;10.57;;
18716;SDS011;9487;50.892;6.906;2023-03-01T12:53:59;10.70;;;9.60;;
18716;SDS011;9487;50.892;6.906;2023-03-01T12:56:31;13.00;;;10.33;;
18716;SDS011;9487;50.892;6.906;2023-03-01T12:59:07;10.90;;;9.73;;
18716;SDS011;9487;50.892;6.906;2023-03-01T13:01:42;12.17;;;9.60;;
18716;SDS011;9487;50.892;6.906;2023-03-01T13:04:21;10.87;;;9.77;;
18716;SDS011;9487;50.892;6.906;2023-03-01T13:07:02;11.97;;;9.83;;
18716;SDS011;9487;50.892;6.906;2023-03-01T13:09:38;10.93;;;9.83;;
18716;SDS011;9487;50.892;6.906;2023-03-01T13:17:53;12.37;;;9.83;;
18716;SDS011;9487;50.892;6.906;2023-03-01T13:20:23;12.30;;;9.53;;
18716;SDS011;9487;50.892;6.906;2023-03-01T13:23:00;14.20;;;9.63;;
18716;SDS011;9487;50.892;6.906;2023-03-01T13:25:29;12.23;;;10.63;;
18716;SDS011;9487;50.892;6.906;2023-03-01T13:31:00;12.00;;;10.00;;
18716;SDS011;9487;50.892;6.906;2023-03-01T13:33:41;12.57;;;10.07;;
18716;SDS011;9487;50.892;6.906;2023-03-01T13:36:10;11.87;;;10.03;;
18716;SDS011;9487;50.892;6.906;2023-03-01T13:38:59;12.40;;;10.50;;
18716;SDS011;9487;50.892;6.906;2023-03-01T13:44:19;12.13;;;10.27;;
18716;SDS011;9487;50.892;6.906;2023-03-01T13:46:59;12.33;;;10.50;;
18716;SDS011;9487;50.892;6.906;2023-03-01T13:49:36;14.63;;;9.40;;
18716;SDS011;9487;50.892;6.906;2023-03-01T13:52:19;13.17;;;9.80;;
18716;SDS011;9487;50.892;6.906;2023-03-01T13:55:03;10.60;;;9.50;;
18716;SDS011;9487;50.892;6.906;2023-03-01T13:57:32;12.17;;;9.73;;
18716;SDS011;9487;50.892;6.906;2023-03-01T14:00:02;11.97;;;9.40;;
18716;SDS011;9487;50.892;6.906;2023-03-01T14:02:31;12.10;;;9.73;;
18716;SDS011;9487;50.892;6.906;2023-03-01T14:04:59;11.57;;;9.80;;
18716;SDS011;9487;50.892;6.906;2023-03-01T14:07:27;13.50;;;9.47;;
18716;SDS011;9487;50.892;6.906;2023-03-01T14:09:56;10.43;;;9.33;;
18716;SDS011;9487;50.892;6.906;2023-03-01T14:12:27;10.53;;;9.43;;
18716;SDS011;9487;50.892;6.906;2023-03-01T14:15:06;10.77;;;9.53;;
18716;SDS011;9487;50.892;6.906;2023-03-01T14:17:47;10.17;;;9.10;;
18716;SDS011;9487;50.892;6.906;2023-03-01T14:20:22;12.03;;;9.67;;
18716;SDS011;9487;50.892;6.906;2023-03-01T14:22:51;10.23;;;8.80;;
18716;SDS011;9487;50.892;6.906;2023-03-01T14:25:21;12.53;;;9.47;;
18716;SDS011;9487;50.892;6.906;2023-03-01T14:27:51;10.37;;;9.27;;
18716;SDS011;9487;50.892;6.906;2023-03-01T14:30:23;9.03;;;8.13;;
18716;SDS011;9487;50.892;6.906;2023-03-01T14:32:53;12.07;;;8.80;;
18716;SDS011;9487;50.892;6.906;2023-03-01T14:35:21;10.10;;;8.97;;
18716;SDS011;9487;50.892;6.906;2023-03-01T14:37:49;10.73;;;8.93;;
18716;SDS011;9487;50.892;6.906;2023-03-01T14:40:20;10.87;;;9.43;;
18716;SDS011;9487;50.892;6.906;2023-03-01T14:42:50;9.50;;;8.50;;
18716;SDS011;9487;50.892;6.906;2023-03-01T14:45:17;9.80;;;8.80;;
18716;SDS011;9487;50.892;6.906;2023-03-01T14:47:45;9.40;;;8.40;;
18716;SDS011;9487;50.892;6.906;2023-03-01T14:50:17;8.80;;;7.57;;
18716;SDS011;9487;50.892;6.906;2023-03-01T14:52:50;10.37;;;8.17;;
18716;SDS011;9487;50.892;6.906;2023-03-01T14:55:22;9.60;;;8.30;;
18716;SDS011;9487;50.892;6.906;2023-03-01T14:57:52;10.67;;;8.77;;
18716;SDS011;9487;50.892;6.906;2023-03-01T15:00:20;10.27;;;8.83;;
18716;SDS011;9487;50.892;6.906;2023-03-01T15:02:50;11.57;;;8.17;;
18716;SDS011;9487;50.892;6.906;2023-03-01T15:05:23;12.90;;;8.77;;
18716;SDS011;9487;50.892;6.906;2023-03-01T15:07:52;12.10;;;8.40;;
18716;SDS011;9487;50.892;6.906;2023-03-01T15:10:20;11.93;;;9.07;;
18716;SDS011;9487;50.892;6.906;2023-03-01T15:12:49;11.20;;;8.70;;
18716;SDS011;9487;50.892;6.906;2023-03-01T15:15:22;9.97;;;8.20;;
18716;SDS011;9487;50.892;6.906;2023-03-01T15:17:59;9.47;;;8.47;;